Latest Weather Observations for Sydney Olympic Park

IDN60901

Issued at 9:31 am EDT Friday 31 March 2017 (issued every 10 minutes, with the page automatically refreshed every 10 minutes)

About weather observations | Map of Sydney area stations | Latest observations for Sydney area | Other Formats
Station Details ID: 066212 Name: SYDNEY OLYMPIC PARK AWS (ARCHERY CENTRE) Lat: -33.83 Lon: 151.07 Height: 4.0 m
Data from the previous 72 hours. | See also: Recent months at Sydney Olympic Park
Date/Time
EDT
Temp
°C
App
Temp
°C
Dew
Point
°C
Rel
Hum
%
Delta-T
°C
Wind Press
QNH
hPa
Press
MSL
hPa
Rain since
9am
mm
Dir  Spd
km/h
Gust
km/h
Spd
kts
Gust
kts
31/09:30am 17.3 15.8 9.2 59 4.2 WSW 7 17 4 9 - - 0.0
31/09:00am 16.2 14.1 8.4 60 4.0 W 9 15 5 8 - - 33.8
31/08:30am 15.0 13.0 8.5 65 3.3 W 9 15 5 8 - - 33.8
31/08:00am 14.7 12.8 8.9 68 2.9 WNW 9 15 5 8 - - 33.8
31/07:30am 14.6 13.2 9.0 69 2.8 W 6 11 3 6 - - 33.8
31/07:00am 14.8 13.4 9.4 70 2.8 W 7 15 4 8 - - 33.8
31/06:30am 15.4 14.0 9.7 69 3.0 WSW 7 13 4 7 - - 33.8
31/06:00am 15.9 13.8 9.8 67 3.2 SW 11 19 6 10 - - 33.8
31/05:30am 16.3 14.4 10.4 68 3.1 SW 11 20 6 11 - - 33.8
31/05:00am 16.4 14.5 10.5 68 3.1 SW 11 17 6 9 - - 33.8
31/04:30am 16.6 14.4 10.7 68 3.1 SW 13 22 7 12 - - 33.8
31/04:00am 16.5 15.0 10.6 68 3.1 SW 9 24 5 13 - - 33.8
31/03:30am 16.5 13.9 10.6 68 3.1 SW 15 28 8 15 - - 33.8
31/03:00am 16.4 14.3 11.3 72 2.7 SW 13 24 7 13 - - 33.8
31/02:30am 15.8 14.5 11.4 75 2.4 WSW 9 19 5 10 - - 33.8
31/02:00am 15.7 14.8 11.5 76 2.3 WSW 7 11 4 6 - - 33.8
31/01:30am 15.7 14.5 11.5 76 2.3 WSW 9 15 5 8 - - 33.8
31/01:00am 15.7 14.5 11.7 77 2.2 WSW 9 19 5 10 - - 33.8
31/12:30am 15.5 13.9 11.7 78 2.1 WSW 11 15 6 8 - - 33.8
31/12:00am 15.6 13.6 11.6 77 2.2 SW 13 22 7 12 - - 33.8
 
Date/Time
EDT
Temp
°C
App
Temp
°C
Dew
Point
°C
Rel
Hum
%
Delta-T
°C
Wind Press
QNH
hPa
Press
MSL
hPa
Rain since
9am
mm
Dir  Spd
km/h
Gust
km/h
Spd
kts
Gust
kts
30/11:30pm 15.5 13.8 12.4 82 1.7 SW 13 24 7 13 - - 33.8
30/11:00pm 15.5 13.7 13.3 87 1.2 SW 15 28 8 15 - - 33.6
30/10:30pm 15.6 13.7 14.1 91 0.8 SW 17 28 9 15 - - 33.6
30/10:08pm 15.7 14.0 14.7 94 0.6 SW 17 26 9 14 - - 33.4
30/10:00pm 15.7 14.6 15.2 97 0.3 SW 15 28 8 15 - - 33.4
30/09:30pm 15.5 15.1 15.3 99 0.1 WSW 11 17 6 9 - - 31.4
30/09:12pm 15.5 14.8 15.3 99 0.1 SW 13 24 7 13 - - 30.2
30/09:00pm 15.7 14.2 15.4 98 0.2 SW 17 30 9 16 - - 29.8
30/08:52pm 15.8 15.1 15.5 98 0.2 SW 13 28 7 15 - - 29.6
30/08:30pm 15.8 13.9 15.3 97 0.3 SSW 19 30 10 16 - - 29.2
30/08:00pm 15.8 15.9 15.6 99 0.1 SW 9 17 5 9 - - 25.0
30/07:45pm 15.8 15.9 15.6 99 0.1 WSW 9 13 5 7 - - 24.2
30/07:40pm 15.8 15.9 15.6 99 0.1 WSW 9 15 5 8 - - 24.0
30/07:30pm 15.9 16.1 15.7 99 0.1 WSW 9 19 5 10 - - 23.8
30/07:19pm 15.9 15.2 15.4 97 0.3 SW 13 20 7 11 - - 23.4
30/07:00pm 15.9 14.4 15.3 96 0.3 SW 17 30 9 16 - - 22.8
30/06:30pm 16.4 16.4 16.2 99 0.1 SSW 11 19 6 10 - - 22.0
30/06:00pm 16.6 15.5 16.3 98 0.2 SSW 17 30 9 16 - - 20.6
30/05:30pm 17.2 17.5 17.0 99 0.1 SW 11 19 6 10 - - 19.0
30/05:00pm 17.7 18.2 17.4 98 0.2 SW 11 24 6 13 - - 17.0
30/04:30pm 18.3 17.8 17.7 96 0.4 SSE 17 35 9 19 - - 13.6
30/04:21pm 18.4 17.6 17.2 93 0.7 SSE 17 30 9 16 - - 13.0
30/04:00pm 18.7 17.5 17.0 90 1.0 SSE 19 32 10 17 - - 12.4
30/03:30pm 19.0 17.7 17.3 90 1.0 S 20 33 11 18 - - 12.4
30/03:00pm 19.0 17.2 17.8 93 0.7 S 24 50 13 27 - - 12.4
30/02:41pm 19.0 18.3 18.7 98 0.2 S 20 35 11 19 - - 12.4
30/02:30pm 19.1 17.3 18.8 98 0.2 S 26 41 14 22 - - 12.2
30/02:00pm 19.1 19.0 18.8 98 0.2 S 17 32 9 17 - - 11.4
30/01:42pm 19.2 16.9 18.5 96 0.4 SSE 28 46 15 25 - - 10.8
30/01:30pm 19.4 17.6 18.7 96 0.4 SSE 26 41 14 22 - - 10.6
30/01:21pm 19.8 18.5 19.1 96 0.4 SSE 24 35 13 19 - - 10.2
30/01:00pm 20.4 21.3 20.1 98 0.2 S 15 24 8 13 - - 9.8
30/12:59pm 20.5 21.5 20.2 98 0.2 S 15 24 8 13 - - 9.8
30/12:30pm 20.9 22.1 20.7 99 0.1 SSE 15 26 8 14 - - 9.0
30/12:00pm 21.2 22.5 20.9 98 0.2 SSE 15 24 8 13 - - 6.0
30/11:30am 22.1 23.9 21.8 98 0.2 S 15 22 8 12 - - 4.4
30/11:00am 23.4 27.2 21.7 90 1.1 SW 4 7 2 4 - - 2.0
30/10:54am 23.9 27.8 21.8 88 1.4 S 4 11 2 6 - - 0.4
30/10:30am 24.2 26.1 20.5 80 2.4 SSW 11 17 6 9 - - 0.0
30/10:00am 25.2 27.3 20.9 77 2.8 SW 11 22 6 12 - - 0.0
30/09:30am 25.2 27.7 19.8 72 3.5 SW 6 9 3 5 - - 0.0
30/09:00am 25.8 27.9 19.4 67 4.1 N 7 15 4 8 - - 0.0
30/08:30am 24.4 27.5 20.3 78 2.7 N 4 9 2 5 - - 0.0
30/08:00am 25.1 26.9 18.8 68 4.0 N 7 15 4 8 - - 0.0
30/07:30am 23.5 28.2 22.7 95 0.5 E 2 9 1 5 - - 0.0
30/07:00am 23.7 28.9 22.9 95 0.5 CALM 0 0 0 0 - - 0.0
30/06:30am 23.4 28.3 22.4 94 0.7 CALM 0 0 0 0 - - 0.0
30/06:00am 23.7 28.8 22.7 94 0.7 CALM 0 0 0 0 - - 0.0
30/05:30am 24.0 28.9 23.0 94 0.7 WNW 2 7 1 4 - - 0.0
30/05:00am 24.3 29.1 22.9 92 0.9 ESE 2 7 1 4 - - 0.0
30/04:30am 24.1 29.1 22.5 91 1.1 CALM 0 0 0 0 - - 0.0
30/04:00am 24.4 29.7 23.0 92 0.9 CALM 0 0 0 0 - - 0.0
30/03:30am 24.5 29.3 22.9 91 1.1 W 2 7 1 4 - - 0.0
30/03:00am 24.7 29.8 22.6 88 1.4 CALM 0 0 0 0 - - 0.0
30/02:30am 25.3 30.4 22.6 85 1.8 CALM 0 0 0 0 - - 0.0
30/02:00am 26.0 31.0 22.5 81 2.4 CALM 0 0 0 0 - - 0.0
30/01:30am 26.4 31.1 22.0 77 2.9 CALM 0 0 0 0 - - 0.0
30/01:00am 27.4 31.3 21.9 72 3.7 SW 4 7 2 4 - - 0.0
30/12:30am 28.7 32.3 22.0 67 4.5 N 6 11 3 6 - - 0.0
30/12:00am 28.9 31.9 21.9 66 4.7 N 9 15 5 8 - - 0.0
 
Date/Time
EDT
Temp
°C
App
Temp
°C
Dew
Point
°C
Rel
Hum
%
Delta-T
°C
Wind Press
QNH
hPa
Press
MSL
hPa
Rain since
9am
mm
Dir  Spd
km/h
Gust
km/h
Spd
kts
Gust
kts
29/11:30pm 28.8 31.9 22.1 67 4.5 NNE 9 17 5 9 - - 0.0
29/11:00pm 28.5 31.5 22.0 68 4.4 N 9 17 5 9 - - 0.0
29/10:30pm 28.2 31.4 22.4 71 3.9 N 9 15 5 8 - - 0.0
29/10:00pm 26.0 31.3 23.1 84 2.0 CALM 0 7 0 4 - - 0.0
29/09:30pm 25.2 30.6 23.3 89 1.3 CALM 0 6 0 3 - - 0.0
29/09:00pm 25.7 31.0 23.0 85 1.8 CALM 0 6 0 3 - - 0.0
29/08:30pm 26.8 30.9 23.3 81 2.4 E 7 9 4 5 - - 0.0
29/08:00pm 27.3 30.9 23.1 78 2.9 E 9 13 5 7 - - 0.0
29/07:30pm 28.2 31.9 23.3 75 3.4 E 9 13 5 7 - - 0.0
29/07:00pm 28.8 32.6 23.5 73 3.6 E 9 13 5 7 - - 0.0
29/06:30pm 29.5 32.7 23.7 71 4.0 E 13 17 7 9 - - 0.0
29/06:00pm 30.7 34.6 23.6 66 4.9 E 9 15 5 8 - - 0.0
29/05:30pm 31.1 35.1 23.7 64 5.1 E 9 13 5 7 - - 0.0
29/05:00pm 31.2 35.0 24.1 66 4.9 E 11 15 6 8 - - 0.0
29/04:30pm 30.7 34.8 24.6 70 4.3 ESE 11 19 6 10 - - 0.0
29/04:00pm 30.4 33.7 23.8 68 4.6 SE 13 19 7 10 - - 0.0
29/03:30pm 30.7 34.1 24.1 68 4.6 ESE 13 19 7 10 - - 0.0
29/03:00pm 31.0 34.1 23.6 64 5.1 SE 13 19 7 10 - - 0.0
29/02:30pm 31.9 35.6 23.2 60 6.0 ESE 9 17 5 9 - - 0.0
29/02:00pm 31.8 35.5 22.5 58 6.4 E 7 13 4 7 - - 0.0
29/01:30pm 30.7 33.6 21.8 59 6.0 E 9 15 5 8 - - 0.0
29/01:00pm 30.3 35.0 22.7 64 5.2 SE 2 11 1 6 - - 0.0
29/12:30pm 29.1 33.0 22.6 68 4.4 E 6 13 3 7 - - 0.0
29/12:00pm 29.1 33.0 22.6 68 4.4 NNW 6 11 3 6 - - 0.0
29/11:30am 26.6 28.8 20.4 69 4.1 N 9 15 5 8 - - 0.0
29/11:00am 26.1 28.5 20.9 73 3.4 NNE 9 17 5 9 - - 0.0
29/10:30am 26.2 28.4 21.2 74 3.3 N 11 19 6 10 - - 0.0
29/10:00am 25.3 28.2 22.4 84 1.9 NNE 11 19 6 10 - - 0.0
29/09:30am 23.4 26.8 21.7 90 1.1 NNE 6 11 3 6 - - 0.0
29/09:00am 22.7 27.4 21.9 95 0.5 CALM 0 6 0 3 - - 0.0
29/08:30am 22.2 26.8 21.7 97 0.3 CALM 0 0 0 0 - - 0.0
29/08:00am 21.9 26.4 21.6 98 0.2 CALM 0 0 0 0 - - 0.0
29/07:45am 21.7 26.1 21.4 98 0.2 CALM 0 0 0 0 - - 0.0
29/07:30am 21.6 26.0 21.3 98 0.2 CALM 0 0 0 0 - - 0.0
29/07:00am 21.5 25.8 21.2 98 0.2 CALM 0 0 0 0 - - 0.0
29/06:53am 21.6 26.0 21.3 98 0.2 CALM 0 2 0 1 - - 0.0
29/06:30am 21.5 25.7 21.0 97 0.3 CALM 0 0 0 0 - - 0.0
29/06:26am 21.5 25.7 21.0 97 0.3 CALM 0 0 0 0 - - 0.0
29/06:14am 21.5 25.7 21.0 97 0.3 CALM 0 0 0 0 - - 0.0
29/06:00am 21.5 25.7 21.0 97 0.3 CALM 0 0 0 0 - - 0.0
29/05:30am 21.4 25.5 20.7 96 0.5 CALM 0 0 0 0 - - 0.0
29/05:00am 21.4 25.5 20.7 96 0.5 CALM 0 0 0 0 - - 0.0
29/04:30am 21.5 25.6 20.8 96 0.5 CALM 0 0 0 0 - - 0.0
29/04:00am 21.5 25.6 20.8 96 0.5 CALM 0 0 0 0 - - 0.0
29/03:30am 21.4 25.5 20.7 96 0.5 CALM 0 0 0 0 - - 0.0
29/03:00am 21.6 25.8 20.9 96 0.5 CALM 0 0 0 0 - - 0.0
29/02:30am 21.5 25.6 20.7 95 0.5 CALM 0 0 0 0 - - 0.0
29/02:00am 21.6 24.5 20.6 94 0.6 NW 6 9 3 5 - - 0.0
29/01:30am 21.7 24.4 20.3 92 0.9 NW 6 9 3 5 - - 0.0
29/01:00am 21.8 24.8 20.1 90 1.1 WNW 4 7 2 4 - - 0.0
29/12:30am 21.8 25.7 20.3 91 1.0 CALM 0 0 0 0 - - 0.0
29/12:00am 21.8 25.7 20.4 92 0.9 CALM 0 0 0 0 - - 0.0
 
Date/Time
EDT
Temp
°C
App
Temp
°C
Dew
Point
°C
Rel
Hum
%
Delta-T
°C
Wind Press
QNH
hPa
Press
MSL
hPa
Rain since
9am
mm
Dir  Spd
km/h
Gust
km/h
Spd
kts
Gust
kts
28/11:30pm 22.0 25.9 20.3 90 1.1 CALM 0 0 0 0 - - 0.0
28/11:00pm 22.1 26.0 20.4 90 1.1 CALM 0 0 0 0 - - 0.0
28/10:30pm 22.1 26.0 20.4 90 1.1 CALM 0 0 0 0 - - 0.0
28/10:00pm 22.1 25.7 19.8 87 1.5 CALM 0 0 0 0 - - 0.0
28/09:30pm 22.2 26.0 20.1 88 1.4 CALM 0 0 0 0 - - 0.0
28/09:00pm 22.2 25.7 19.6 85 1.7 CALM 0 0 0 0 - - 0.0
28/08:30pm 22.1 25.6 19.6 86 1.6 CALM 0 0 0 0 - - 0.0
28/08:00pm 22.1 25.6 19.5 85 1.7 CALM 0 4 0 2 - - 0.0
28/07:30pm 22.2 25.5 19.2 83 1.9 CALM 0 0 0 0 - - 0.0
28/07:00pm 22.2 23.7 19.0 82 2.0 SE 9 15 5 8 - - 0.0
28/06:30pm 22.3 23.4 18.9 81 2.1 SSE 11 17 6 9 - - 0.0
28/06:00pm 22.6 24.3 18.6 78 2.5 SE 7 13 4 7 - - 0.0
28/05:30pm 22.8 24.2 18.6 77 2.6 SSE 9 11 5 6 - - 0.0
28/05:00pm 23.0 24.4 18.7 77 2.7 SE 9 13 5 7 - - 0.0
28/04:30pm 23.1 24.6 18.8 77 2.7 SE 9 15 5 8 - - 0.0
28/04:00pm 23.1 24.0 18.4 75 3.0 S 11 19 6 10 - - 0.0
28/03:30pm 23.4 24.7 18.5 74 3.1 SE 9 17 5 9 - - 0.0
28/03:00pm 23.7 25.0 19.2 76 2.9 SE 11 17 6 9 - - 0.0
28/02:30pm 23.6 25.0 18.7 74 3.1 SSE 9 15 5 8 - - 0.0
28/02:00pm 23.7 24.6 18.4 72 3.3 SE 11 13 6 7 - - 0.0
28/01:30pm 23.7 25.1 18.6 73 3.2 SE 9 15 5 8 - - 0.0
28/01:00pm 23.5 25.6 18.2 72 3.3 SE 4 9 2 5 - - 0.0
28/12:30pm 23.6 26.3 18.7 74 3.1 SE 2 11 1 6 - - 0.0
28/12:00pm 23.4 25.4 18.7 75 3.0 SW 6 9 3 5 - - 0.0
28/11:30am 23.1 24.5 18.6 76 2.8 SSW 9 13 5 7 - - 0.0
28/11:00am 22.5 24.2 18.1 76 2.7 S 6 11 3 6 - - 0.0
28/10:30am 22.2 23.4 18.2 78 2.5 SSW 9 13 5 7 - - 0.0
28/10:00am 21.8 22.9 18.0 79 2.4 S 9 11 5 6 - - 0.0

Latest Capital City Observations: Canberra | Sydney | Melbourne | Brisbane | Adelaide | Perth | Hobart | Darwin

Other Formats:

Comma delimited format used in spreadsheet applications
http://www.bom.gov.au/fwo/IDN60901/IDN60901.95765.axf

JavaScript Object Notation format (JSON) in row-major order
http://www.bom.gov.au/fwo/IDN60901/IDN60901.95765.json